sensor_id;sensor_type;location;lat;lon;timestamp;pressure;altitude;pressure_sealevel;temperature;humidity
58879;BME280;44660;42.664;23.266;2024-02-26T00:00:30;94114.28;;;8.55;70.55
58879;BME280;44660;42.664;23.266;2024-02-26T00:02:56;94087.38;;;8.46;69.81
58879;BME280;44660;42.664;23.266;2024-02-26T00:05:21;94111.38;;;8.56;70.24
58879;BME280;44660;42.664;23.266;2024-02-26T00:07:47;94109.06;;;8.60;70.13
58879;BME280;44660;42.664;23.266;2024-02-26T00:10:14;94072.66;;;8.38;69.95
58879;BME280;44660;42.664;23.266;2024-02-26T00:12:39;94107.53;;;8.64;69.95
58879;BME280;44660;42.664;23.266;2024-02-26T00:15:08;94112.66;;;8.71;69.82
58879;BME280;44660;42.664;23.266;2024-02-26T00:17:34;94063.16;;;8.42;69.80
58879;BME280;44660;42.664;23.266;2024-02-26T00:20:01;94108.63;;;8.68;69.20
58879;BME280;44660;42.664;23.266;2024-02-26T00:22:30;94100.78;;;8.56;69.59
58879;BME280;44660;42.664;23.266;2024-02-26T00:24:55;94099.50;;;8.59;69.05
58879;BME280;44660;42.664;23.266;2024-02-26T00:27:21;94097.88;;;8.58;68.96
58879;BME280;44660;42.664;23.266;2024-02-26T00:29:46;94107.78;;;8.62;68.96
58879;BME280;44660;42.664;23.266;2024-02-26T00:32:11;94109.59;;;8.62;68.76
58879;BME280;44660;42.664;23.266;2024-02-26T00:34:37;94094.84;;;8.66;68.22
58879;BME280;44660;42.664;23.266;2024-02-26T00:37:02;94075.56;;;8.54;68.09
58879;BME280;44660;42.664;23.266;2024-02-26T00:39:28;94089.84;;;8.70;67.80
58879;BME280;44660;42.664;23.266;2024-02-26T00:41:53;94084.78;;;8.68;67.75
58879;BME280;44660;42.664;23.266;2024-02-26T00:44:19;94071.06;;;8.71;68.07
58879;BME280;44660;42.664;23.266;2024-02-26T00:46:45;94075.88;;;8.74;68.47
58879;BME280;44660;42.664;23.266;2024-02-26T00:49:10;94079.09;;;8.76;68.86
58879;BME280;44660;42.664;23.266;2024-02-26T00:51:35;94078.84;;;8.78;68.50
58879;BME280;44660;42.664;23.266;2024-02-26T00:54:01;94078.41;;;8.86;68.57
58879;BME280;44660;42.664;23.266;2024-02-26T00:56:27;94070.25;;;8.88;68.66
58879;BME280;44660;42.664;23.266;2024-02-26T00:58:52;94066.53;;;8.89;68.83
58879;BME280;44660;42.664;23.266;2024-02-26T01:01:18;93980.88;;;8.15;69.06
58879;BME280;44660;42.664;23.266;2024-02-26T01:03:43;94053.69;;;8.80;68.88
58879;BME280;44660;42.664;23.266;2024-02-26T01:06:08;94064.44;;;8.91;68.59
58879;BME280;44660;42.664;23.266;2024-02-26T01:08:34;94066.06;;;8.92;68.28
58879;BME280;44660;42.664;23.266;2024-02-26T01:11:01;94069.50;;;8.92;68.50
58879;BME280;44660;42.664;23.266;2024-02-26T01:13:26;94044.69;;;8.81;68.31
58879;BME280;44660;42.664;23.266;2024-02-26T01:15:51;94067.41;;;8.94;68.37
58879;BME280;44660;42.664;23.266;2024-02-26T01:18:17;94059.97;;;8.91;68.29
58879;BME280;44660;42.664;23.266;2024-02-26T01:20:42;94053.84;;;8.91;68.33
58879;BME280;44660;42.664;23.266;2024-02-26T01:23:08;94048.53;;;8.91;68.40
58879;BME280;44660;42.664;23.266;2024-02-26T01:25:33;94059.53;;;8.99;68.33
58879;BME280;44660;42.664;23.266;2024-02-26T01:27:59;94060.88;;;9.02;68.49
58879;BME280;44660;42.664;23.266;2024-02-26T01:30:24;94053.50;;;9.04;68.63
58879;BME280;44660;42.664;23.266;2024-02-26T01:32:50;94058.81;;;9.04;68.73
58879;BME280;44660;42.664;23.266;2024-02-26T01:35:15;94043.38;;;9.01;68.80
58879;BME280;44660;42.664;23.266;2024-02-26T01:37:40;94058.88;;;9.09;68.62
58879;BME280;44660;42.664;23.266;2024-02-26T01:40:07;94057.25;;;9.08;68.60
58879;BME280;44660;42.664;23.266;2024-02-26T01:42:34;94039.69;;;9.02;68.75
58879;BME280;44660;42.664;23.266;2024-02-26T01:45:01;94061.03;;;9.12;68.81
58879;BME280;44660;42.664;23.266;2024-02-26T01:47:27;94038.88;;;9.02;68.66
58879;BME280;44660;42.664;23.266;2024-02-26T01:49:53;94044.78;;;9.09;68.80
58879;BME280;44660;42.664;23.266;2024-02-26T01:52:19;94025.56;;;8.96;68.88
58879;BME280;44660;42.664;23.266;2024-02-26T01:54:45;94056.22;;;9.09;69.08
58879;BME280;44660;42.664;23.266;2024-02-26T01:57:12;94044.97;;;9.02;69.11
58879;BME280;44660;42.664;23.266;2024-02-26T01:59:39;94048.00;;;9.11;69.20
58879;BME280;44660;42.664;23.266;2024-02-26T02:02:07;94038.38;;;9.05;69.04
58879;BME280;44660;42.664;23.266;2024-02-26T02:04:35;94042.91;;;9.04;69.08
58879;BME280;44660;42.664;23.266;2024-02-26T02:07:01;94037.59;;;9.04;69.50
58879;BME280;44660;42.664;23.266;2024-02-26T02:09:27;94053.00;;;9.07;69.45
58879;BME280;44660;42.664;23.266;2024-02-26T02:11:53;94049.31;;;9.08;69.55
58879;BME280;44660;42.664;23.266;2024-02-26T02:14:19;94039.69;;;9.02;69.60
58879;BME280;44660;42.664;23.266;2024-02-26T02:16:45;94041.91;;;9.10;69.76
58879;BME280;44660;42.664;23.266;2024-02-26T02:19:10;94037.34;;;9.06;69.70
58879;BME280;44660;42.664;23.266;2024-02-26T02:21:36;94044.31;;;9.12;69.86
58879;BME280;44660;42.664;23.266;2024-02-26T02:24:01;94043.03;;;9.14;70.02
58879;BME280;44660;42.664;23.266;2024-02-26T02:26:27;94024.88;;;9.06;69.69
58879;BME280;44660;42.664;23.266;2024-02-26T02:28:53;94038.81;;;9.19;69.81
58879;BME280;44660;42.664;23.266;2024-02-26T02:31:18;94035.13;;;9.20;69.73
58879;BME280;44660;42.664;23.266;2024-02-26T02:33:44;94031.59;;;9.14;69.80
58879;BME280;44660;42.664;23.266;2024-02-26T02:36:10;94029.25;;;9.18;69.84
58879;BME280;44660;42.664;23.266;2024-02-26T02:38:37;94036.44;;;9.17;69.80
58879;BME280;44660;42.664;23.266;2024-02-26T02:41:02;94041.22;;;9.20;69.86
58879;BME280;44660;42.664;23.266;2024-02-26T02:43:28;94040.44;;;9.20;69.80
58879;BME280;44660;42.664;23.266;2024-02-26T02:45:53;94044.13;;;9.19;69.84
58879;BME280;44660;42.664;23.266;2024-02-26T02:48:19;94042.53;;;9.18;69.89
58879;BME280;44660;42.664;23.266;2024-02-26T02:50:44;94049.50;;;9.24;70.12
58879;BME280;44660;42.664;23.266;2024-02-26T02:53:10;94048.00;;;9.11;70.13
58879;BME280;44660;42.664;23.266;2024-02-26T02:55:35;94027.38;;;8.96;70.30
58879;BME280;44660;42.664;23.266;2024-02-26T02:58:01;94052.53;;;9.10;70.37
58879;BME280;44660;42.664;23.266;2024-02-26T03:00:26;94056.34;;;9.20;70.40
58879;BME280;44660;42.664;23.266;2024-02-26T03:02:52;94047.88;;;9.23;70.32
58879;BME280;44660;42.664;23.266;2024-02-26T03:05:17;94040.44;;;9.20;70.50
58879;BME280;44660;42.664;23.266;2024-02-26T03:07:42;94047.16;;;9.27;69.94
58879;BME280;44660;42.664;23.266;2024-02-26T03:10:08;94051.16;;;9.30;70.04
58879;BME280;44660;42.664;23.266;2024-02-26T03:12:34;94054.34;;;9.27;69.89
58879;BME280;44660;42.664;23.266;2024-02-26T03:15:00;94032.88;;;9.11;69.91
58879;BME280;44660;42.664;23.266;2024-02-26T03:17:29;94044.06;;;9.13;70.10
58879;BME280;44660;42.664;23.266;2024-02-26T03:19:55;94028.66;;;9.10;70.08
58879;BME280;44660;42.664;23.266;2024-02-26T03:22:20;94052.47;;;9.27;69.94
58879;BME280;44660;42.664;23.266;2024-02-26T03:24:46;94038.41;;;9.27;70.15
58879;BME280;44660;42.664;23.266;2024-02-26T03:27:12;94043.16;;;9.25;70.30
58879;BME280;44660;42.664;23.266;2024-02-26T03:29:38;94029.09;;;9.24;70.45
58879;BME280;44660;42.664;23.266;2024-02-26T03:32:07;94032.03;;;9.28;70.36
58879;BME280;44660;42.664;23.266;2024-02-26T03:34:32;94029.09;;;9.24;70.07
58879;BME280;44660;42.664;23.266;2024-02-26T03:37:01;94025.16;;;9.27;70.16
58879;BME280;44660;42.664;23.266;2024-02-26T03:39:26;94033.66;;;9.29;70.18
58879;BME280;44660;42.664;23.266;2024-02-26T03:41:52;94014.88;;;9.13;69.97
58879;BME280;44660;42.664;23.266;2024-02-26T03:44:17;94036.56;;;9.27;70.29
58879;BME280;44660;42.664;23.266;2024-02-26T03:46:44;94036.56;;;9.27;70.13
58879;BME280;44660;42.664;23.266;2024-02-26T03:49:09;94014.88;;;9.13;70.16
58879;BME280;44660;42.664;23.266;2024-02-26T03:51:35;93968.94;;;8.86;70.32
58879;BME280;44660;42.664;23.266;2024-02-26T03:54:01;94025.31;;;9.20;70.49
58879;BME280;44660;42.664;23.266;2024-02-26T03:56:27;94026.44;;;9.24;70.29
58879;BME280;44660;42.664;23.266;2024-02-26T03:58:53;94019.53;;;9.23;70.30
58879;BME280;44660;42.664;23.266;2024-02-26T04:01:18;94025.63;;;9.24;70.22
58879;BME280;44660;42.664;23.266;2024-02-26T04:03:44;93999.97;;;9.07;70.32
58879;BME280;44660;42.664;23.266;2024-02-26T04:06:09;94009.53;;;9.08;70.33
58879;BME280;44660;42.664;23.266;2024-02-26T04:08:44;94016.00;;;9.18;70.33
58879;BME280;44660;42.664;23.266;2024-02-26T04:11:10;93982.56;;;8.94;70.38
58879;BME280;44660;42.664;23.266;2024-02-26T04:13:36;94015.63;;;9.09;70.21
58879;BME280;44660;42.664;23.266;2024-02-26T04:16:04;94023.16;;;9.17;70.35
58879;BME280;44660;42.664;23.266;2024-02-26T04:18:31;94013.84;;;9.14;70.30
58879;BME280;44660;42.664;23.266;2024-02-26T04:20:56;93998.13;;;9.08;70.15
58879;BME280;44660;42.664;23.266;2024-02-26T04:23:22;94004.28;;;9.13;70.15
58879;BME280;44660;42.664;23.266;2024-02-26T04:25:47;94010.88;;;9.11;70.24
58879;BME280;44660;42.664;23.266;2024-02-26T04:28:13;93997.25;;;9.02;70.09
58879;BME280;44660;42.664;23.266;2024-02-26T04:30:38;93954.97;;;8.73;70.03
58879;BME280;44660;42.664;23.266;2024-02-26T04:33:04;94006.63;;;9.10;70.02
58879;BME280;44660;42.664;23.266;2024-02-26T04:35:29;94011.66;;;9.11;69.96
58879;BME280;44660;42.664;23.266;2024-02-26T04:37:55;93979.13;;;8.94;70.04
58879;BME280;44660;42.664;23.266;2024-02-26T04:40:20;94007.97;;;9.12;70.05
58879;BME280;44660;42.664;23.266;2024-02-26T04:42:46;93996.25;;;9.08;69.87
58879;BME280;44660;42.664;23.266;2024-02-26T04:45:11;93999.97;;;9.07;69.94
58879;BME280;44660;42.664;23.266;2024-02-26T04:47:36;94010.63;;;9.12;70.14
58879;BME280;44660;42.664;23.266;2024-02-26T04:50:02;93996.25;;;9.08;70.34
58879;BME280;44660;42.664;23.266;2024-02-26T04:52:27;94015.53;;;9.21;70.36
58879;BME280;44660;42.664;23.266;2024-02-26T04:54:53;93993.56;;;9.03;70.28
58879;BME280;44660;42.664;23.266;2024-02-26T04:57:20;94029.63;;;9.26;70.27
58879;BME280;44660;42.664;23.266;2024-02-26T04:59:45;94032.84;;;9.28;69.93
58879;BME280;44660;42.664;23.266;2024-02-26T05:02:11;94025.16;;;9.27;69.77
58879;BME280;44660;42.664;23.266;2024-02-26T05:04:37;94029.88;;;9.25;69.83
58879;BME280;44660;42.664;23.266;2024-02-26T05:07:02;94029.00;;;9.19;69.73
58879;BME280;44660;42.664;23.266;2024-02-26T05:09:28;94014.19;;;9.01;69.23
58879;BME280;44660;42.664;23.266;2024-02-26T05:11:54;94035.91;;;9.20;69.79
58879;BME280;44660;42.664;23.266;2024-02-26T05:14:19;94036.16;;;9.19;69.54
58879;BME280;44660;42.664;23.266;2024-02-26T05:16:45;94038.50;;;9.15;69.58
58879;BME280;44660;42.664;23.266;2024-02-26T05:19:11;94044.31;;;9.12;69.55
58879;BME280;44660;42.664;23.266;2024-02-26T05:21:36;94061.66;;;9.20;69.71
58879;BME280;44660;42.664;23.266;2024-02-26T05:24:02;94062.13;;;9.17;69.69
58879;BME280;44660;42.664;23.266;2024-02-26T05:26:27;94049.31;;;9.08;70.13
58879;BME280;44660;42.664;23.266;2024-02-26T05:28:52;94028.03;;;9.03;70.06
58879;BME280;44660;42.664;23.266;2024-02-26T05:31:18;94054.09;;;9.11;69.99
58879;BME280;44660;42.664;23.266;2024-02-26T05:33:44;94062.13;;;9.17;69.83
58879;BME280;44660;42.664;23.266;2024-02-26T05:36:09;94054.94;;;9.12;69.82
58879;BME280;44660;42.664;23.266;2024-02-26T05:38:35;94070.16;;;9.22;70.02
58879;BME280;44660;42.664;23.266;2024-02-26T05:41:01;94049.78;;;9.05;70.31
58879;BME280;44660;42.664;23.266;2024-02-26T05:43:26;94064.78;;;9.17;70.60
58879;BME280;44660;42.664;23.266;2024-02-26T05:45:52;94073.94;;;9.26;70.52
58879;BME280;44660;42.664;23.266;2024-02-26T05:48:18;94071.16;;;9.15;70.55
58879;BME280;44660;42.664;23.266;2024-02-26T05:50:47;94078.56;;;9.13;70.62
58879;BME280;44660;42.664;23.266;2024-02-26T05:53:12;94080.84;;;9.27;70.68
58879;BME280;44660;42.664;23.266;2024-02-26T05:55:38;94053.63;;;9.14;70.50
58879;BME280;44660;42.664;23.266;2024-02-26T05:58:04;94049.63;;;9.12;70.58
58879;BME280;44660;42.664;23.266;2024-02-26T06:00:29;94083.06;;;9.35;70.50
58879;BME280;44660;42.664;23.266;2024-02-26T06:02:55;94037.66;;;9.09;70.34
58879;BME280;44660;42.664;23.266;2024-02-26T06:05:20;94087.97;;;9.43;70.45
58879;BME280;44660;42.664;23.266;2024-02-26T06:07:45;94087.47;;;9.46;70.32
58879;BME280;44660;42.664;23.266;2024-02-26T06:10:11;94075.69;;;9.37;70.51
58879;BME280;44660;42.664;23.266;2024-02-26T06:12:39;94086.28;;;9.37;70.90
58879;BME280;44660;42.664;23.266;2024-02-26T06:15:04;94089.94;;;9.31;71.17
58879;BME280;44660;42.664;23.266;2024-02-26T06:17:30;94089.94;;;9.31;71.20
58879;BME280;44660;42.664;23.266;2024-02-26T06:19:55;94086.44;;;9.30;71.30
58879;BME280;44660;42.664;23.266;2024-02-26T06:22:20;94090.84;;;9.42;70.75
58879;BME280;44660;42.664;23.266;2024-02-26T06:24:46;94073.75;;;9.32;70.61
58879;BME280;44660;42.664;23.266;2024-02-26T06:27:11;94071.09;;;9.32;70.64
58879;BME280;44660;42.664;23.266;2024-02-26T06:29:37;94087.72;;;9.45;70.89
58879;BME280;44660;42.664;23.266;2024-02-26T06:32:03;94094.25;;;9.37;71.24
58879;BME280;44660;42.664;23.266;2024-02-26T06:34:28;94077.69;;;9.30;71.47
58879;BME280;44660;42.664;23.266;2024-02-26T06:36:54;94084.44;;;9.38;71.38
58879;BME280;44660;42.664;23.266;2024-02-26T06:39:19;94091.16;;;9.45;71.34
58879;BME280;44660;42.664;23.266;2024-02-26T06:41:45;94068.19;;;9.34;71.14
58879;BME280;44660;42.664;23.266;2024-02-26T06:44:13;94083.63;;;9.37;71.29
58879;BME280;44660;42.664;23.266;2024-02-26T06:46:38;94078.88;;;9.39;71.10
58879;BME280;44660;42.664;23.266;2024-02-26T06:49:04;94094.31;;;9.42;71.26
58879;BME280;44660;42.664;23.266;2024-02-26T06:51:30;94083.25;;;9.28;71.37
58879;BME280;44660;42.664;23.266;2024-02-26T06:53:55;94090.25;;;9.35;71.81
58879;BME280;44660;42.664;23.266;2024-02-26T06:56:21;94086.72;;;9.29;71.99
58879;BME280;44660;42.664;23.266;2024-02-26T06:58:46;94082.44;;;9.28;71.83
58879;BME280;44660;42.664;23.266;2024-02-26T07:01:12;94091.09;;;9.40;71.77
58879;BME280;44660;42.664;23.266;2024-02-26T07:03:40;94094.91;;;9.50;71.66
58879;BME280;44660;42.664;23.266;2024-02-26T07:06:08;94096.59;;;9.56;71.59
58879;BME280;44660;42.664;23.266;2024-02-26T07:08:34;94107.03;;;9.62;71.23
58879;BME280;44660;42.664;23.266;2024-02-26T07:10:59;94101.03;;;9.72;71.12
58879;BME280;44660;42.664;23.266;2024-02-26T07:13:24;94103.38;;;9.69;71.11
58879;BME280;44660;42.664;23.266;2024-02-26T07:15:50;94103.47;;;9.74;70.91
58879;BME280;44660;42.664;23.266;2024-02-26T07:18:15;94080.06;;;9.48;70.79
58879;BME280;44660;42.664;23.266;2024-02-26T07:20:40;94121.78;;;9.75;70.76
58879;BME280;44660;42.664;23.266;2024-02-26T07:23:06;94101.28;;;9.71;70.38
58879;BME280;44660;42.664;23.266;2024-02-26T07:25:32;94116.09;;;9.89;70.26
58879;BME280;44660;42.664;23.266;2024-02-26T07:27:57;94115.59;;;9.92;70.03
58879;BME280;44660;42.664;23.266;2024-02-26T07:30:23;94115.09;;;9.95;70.06
58879;BME280;44660;42.664;23.266;2024-02-26T07:32:50;94110.25;;;9.87;70.11
58879;BME280;44660;42.664;23.266;2024-02-26T07:35:15;94104.88;;;9.82;70.05
58879;BME280;44660;42.664;23.266;2024-02-26T07:37:41;94114.88;;;9.74;70.07
58879;BME280;44660;42.664;23.266;2024-02-26T07:40:08;94119.44;;;9.79;70.05
58879;BME280;44660;42.664;23.266;2024-02-26T07:42:33;94107.47;;;9.76;69.99
58879;BME280;44660;42.664;23.266;2024-02-26T07:44:59;94100.03;;;9.78;69.83
58879;BME280;44660;42.664;23.266;2024-02-26T07:47:24;94098.44;;;9.77;69.33
58879;BME280;44660;42.664;23.266;2024-02-26T07:49:50;94113.81;;;9.97;69.68
58879;BME280;44660;42.664;23.266;2024-02-26T07:52:15;94116.03;;;10.06;69.38
58879;BME280;44660;42.664;23.266;2024-02-26T07:54:40;94103.53;;;10.06;69.35
58879;BME280;44660;42.664;23.266;2024-02-26T07:57:06;94083.28;;;10.00;68.98
58879;BME280;44660;42.664;23.266;2024-02-26T07:59:32;94104.72;;;10.21;68.38
58879;BME280;44660;42.664;23.266;2024-02-26T08:01:57;94096.28;;;10.24;67.85
58879;BME280;44660;42.664;23.266;2024-02-26T08:04:23;94106.06;;;10.45;67.23
58879;BME280;44660;42.664;23.266;2024-02-26T08:06:48;94100.81;;;10.51;66.51
58879;BME280;44660;42.664;23.266;2024-02-26T08:09:14;94101.69;;;10.61;66.48
58879;BME280;44660;42.664;23.266;2024-02-26T08:11:39;94102.00;;;10.70;65.66
58879;BME280;44660;42.664;23.266;2024-02-26T08:14:05;94084.47;;;10.69;65.00
58879;BME280;44660;42.664;23.266;2024-02-26T08:16:30;94088.53;;;10.77;65.06
58879;BME280;44660;42.664;23.266;2024-02-26T08:18:56;94103.28;;;10.95;65.41
58879;BME280;44660;42.664;23.266;2024-02-26T08:21:21;94092.66;;;11.00;65.58
58879;BME280;44660;42.664;23.266;2024-02-26T08:23:46;94085.75;;;10.99;65.41
58879;BME280;44660;42.664;23.266;2024-02-26T08:26:12;94087.16;;;11.12;65.52
58879;BME280;44660;42.664;23.266;2024-02-26T08:28:38;94102.94;;;11.24;65.17
58879;BME280;44660;42.664;23.266;2024-02-26T08:31:03;94097.63;;;11.29;64.91
58879;BME280;44660;42.664;23.266;2024-02-26T08:33:29;94096.63;;;11.35;64.75
58879;BME280;44660;42.664;23.266;2024-02-26T08:35:56;94097.13;;;11.37;64.45
58879;BME280;44660;42.664;23.266;2024-02-26T08:38:21;94097.72;;;11.44;64.82
58879;BME280;44660;42.664;23.266;2024-02-26T08:40:47;94096.94;;;11.49;64.66
58879;BME280;44660;42.664;23.266;2024-02-26T08:43:12;94086.84;;;11.56;64.14
58879;BME280;44660;42.664;23.266;2024-02-26T08:45:38;94096.47;;;11.68;63.69
58879;BME280;44660;42.664;23.266;2024-02-26T08:48:03;94078.34;;;11.59;63.80
58879;BME280;44660;42.664;23.266;2024-02-26T08:50:29;94092.81;;;11.79;63.49
58879;BME280;44660;42.664;23.266;2024-02-26T08:52:54;94086.72;;;11.89;63.04
58879;BME280;44660;42.664;23.266;2024-02-26T08:55:20;94095.84;;;12.14;62.70
58879;BME280;44660;42.664;23.266;2024-02-26T08:57:45;94095.34;;;12.22;62.54
58879;BME280;44660;42.664;23.266;2024-02-26T09:00:11;94094.03;;;12.30;62.03
58879;BME280;44660;42.664;23.266;2024-02-26T09:02:37;94069.25;;;12.24;61.78
58879;BME280;44660;42.664;23.266;2024-02-26T09:05:06;94088.72;;;12.45;61.68
58879;BME280;44660;42.664;23.266;2024-02-26T09:07:31;94083.38;;;12.45;61.10
58879;BME280;44660;42.664;23.266;2024-02-26T09:09:57;94089.25;;;12.47;60.85
58879;BME280;44660;42.664;23.266;2024-02-26T09:12:22;94067.66;;;12.38;61.05
58879;BME280;44660;42.664;23.266;2024-02-26T09:14:48;94070.03;;;12.30;61.44
58879;BME280;44660;42.664;23.266;2024-02-26T09:17:13;94084.97;;;12.25;61.23
58879;BME280;44660;42.664;23.266;2024-02-26T09:19:38;94080.97;;;12.23;61.30
58879;BME280;44660;42.664;23.266;2024-02-26T09:22:04;94082.84;;;12.33;61.47
58879;BME280;44660;42.664;23.266;2024-02-26T09:24:30;94084.22;;;12.51;60.99
58879;BME280;44660;42.664;23.266;2024-02-26T09:26:55;94079.38;;;12.63;60.62
58879;BME280;44660;42.664;23.266;2024-02-26T09:29:21;94074.09;;;12.79;60.34
58879;BME280;44660;42.664;23.266;2024-02-26T09:31:47;94036.47;;;12.80;59.59
58879;BME280;44660;42.664;23.266;2024-02-26T09:34:14;94072.41;;;13.14;59.51
58879;BME280;44660;42.664;23.266;2024-02-26T09:36:40;94072.69;;;13.17;59.16
58879;BME280;44660;42.664;23.266;2024-02-26T09:39:05;94056.16;;;13.20;58.50
58879;BME280;44660;42.664;23.266;2024-02-26T09:41:34;94071.59;;;13.39;57.87
58879;BME280;44660;42.664;23.266;2024-02-26T09:44:02;94058.44;;;13.58;57.47
58879;BME280;44660;42.664;23.266;2024-02-26T09:46:28;94060.53;;;13.71;57.53
58879;BME280;44660;42.664;23.266;2024-02-26T09:48:54;94059.41;;;13.88;56.61
58879;BME280;44660;42.664;23.266;2024-02-26T09:51:22;94053.19;;;14.03;56.24
58879;BME280;44660;42.664;23.266;2024-02-26T09:53:51;94057.69;;;14.08;54.94
58879;BME280;44660;42.664;23.266;2024-02-26T09:56:17;94041.56;;;14.18;53.61
58879;BME280;44660;42.664;23.266;2024-02-26T09:58:42;94044.72;;;14.30;52.96
58879;BME280;44660;42.664;23.266;2024-02-26T10:01:13;94040.91;;;14.42;51.78
58879;BME280;44660;42.664;23.266;2024-02-26T10:03:40;94037.09;;;14.13;51.96
58879;BME280;44660;42.664;23.266;2024-02-26T10:06:10;94042.41;;;14.18;52.01
58879;BME280;44660;42.664;23.266;2024-02-26T10:08:35;94041.75;;;14.32;51.36
58879;BME280;44660;42.664;23.266;2024-02-26T10:11:05;94027.88;;;14.30;51.26
58879;BME280;44660;42.664;23.266;2024-02-26T10:13:32;94031.38;;;14.25;51.53
58879;BME280;44660;42.664;23.266;2024-02-26T10:15:57;94035.59;;;14.36;51.52
58879;BME280;44660;42.664;23.266;2024-02-26T10:18:24;94022.75;;;14.39;51.16
58879;BME280;44660;42.664;23.266;2024-02-26T10:21:02;94021.06;;;14.48;51.17
58879;BME280;44660;42.664;23.266;2024-02-26T10:23:28;94020.16;;;14.63;50.86
58879;BME280;44660;42.664;23.266;2024-02-26T10:25:56;94022.56;;;14.59;50.49
58879;BME280;44660;42.664;23.266;2024-02-26T10:28:22;94002.78;;;14.60;50.72
58879;BME280;44660;42.664;23.266;2024-02-26T10:30:48;94006.50;;;14.64;50.75
58879;BME280;44660;42.664;23.266;2024-02-26T10:33:14;94007.03;;;14.61;50.96
58879;BME280;44660;42.664;23.266;2024-02-26T10:35:40;94002.41;;;14.37;49.86
58879;BME280;44660;42.664;23.266;2024-02-26T10:38:10;93986.34;;;14.43;50.42
58879;BME280;44660;42.664;23.266;2024-02-26T10:40:35;93994.63;;;14.41;50.26
58879;BME280;44660;42.664;23.266;2024-02-26T10:43:01;93978.94;;;14.29;50.76
58879;BME280;44660;42.664;23.266;2024-02-26T10:45:27;93988.53;;;14.35;50.53
58879;BME280;44660;42.664;23.266;2024-02-26T10:47:53;93991.06;;;14.51;50.81
58879;BME280;44660;42.664;23.266;2024-02-26T10:50:19;93956.44;;;14.35;50.08
58879;BME280;44660;42.664;23.266;2024-02-26T10:52:44;93986.72;;;14.65;49.85
58879;BME280;44660;42.664;23.266;2024-02-26T10:55:16;93985.47;;;14.82;49.43
58879;BME280;44660;42.664;23.266;2024-02-26T10:57:45;93987.34;;;14.81;48.84
58879;BME280;44660;42.664;23.266;2024-02-26T11:00:14;93979.41;;;14.71;49.06
58879;BME280;44660;42.664;23.266;2024-02-26T11:02:41;93976.34;;;14.83;49.25
58879;BME280;44660;42.664;23.266;2024-02-26T11:05:07;93969.88;;;14.89;48.50
58879;BME280;44660;42.664;23.266;2024-02-26T11:07:36;93949.59;;;14.83;48.55
58879;BME280;44660;42.664;23.266;2024-02-26T11:10:03;93961.94;;;14.79;48.73
58879;BME280;44660;42.664;23.266;2024-02-26T11:12:31;93966.69;;;14.58;48.92
58879;BME280;44660;42.664;23.266;2024-02-26T11:14:57;93974.06;;;14.36;48.63
58879;BME280;44660;42.664;23.266;2024-02-26T11:17:27;93971.53;;;14.21;49.78
58879;BME280;44660;42.664;23.266;2024-02-26T11:19:58;93970.03;;;14.04;49.45
58879;BME280;44660;42.664;23.266;2024-02-26T11:22:24;93952.75;;;13.92;49.50
58879;BME280;44660;42.664;23.266;2024-02-26T11:24:54;93975.97;;;13.96;49.75
58879;BME280;44660;42.664;23.266;2024-02-26T11:27:26;93974.31;;;14.00;49.61
58879;BME280;44660;42.664;23.266;2024-02-26T11:29:56;93973.91;;;13.88;50.06
58879;BME280;44660;42.664;23.266;2024-02-26T11:32:25;93973.59;;;13.90;49.75
58879;BME280;44660;42.664;23.266;2024-02-26T11:34:51;93957.69;;;13.74;50.57
58879;BME280;44660;42.664;23.266;2024-02-26T11:37:17;93958.13;;;13.86;50.20
58879;BME280;44660;42.664;23.266;2024-02-26T11:39:43;93953.06;;;13.85;50.39
58879;BME280;44660;42.664;23.266;2024-02-26T11:42:14;93951.94;;;13.91;50.69
58879;BME280;44660;42.664;23.266;2024-02-26T11:44:40;93949.16;;;14.07;50.33
58879;BME280;44660;42.664;23.266;2024-02-26T11:49:35;93939.03;;;14.03;50.11
58879;BME280;44660;42.664;23.266;2024-02-26T11:52:05;93955.06;;;14.03;50.11
58879;BME280;44660;42.664;23.266;2024-02-26T11:54:48;93956.97;;;14.03;50.38
58879;BME280;44660;42.664;23.266;2024-02-26T11:57:37;93945.91;;;14.15;49.79
58879;BME280;44660;42.664;23.266;2024-02-26T12:05:04;93920.03;;;14.05;49.57
58879;BME280;44660;42.664;23.266;2024-02-26T12:07:30;93944.94;;;14.35;49.51
58879;BME280;44660;42.664;23.266;2024-02-26T12:10:20;93911.84;;;14.26;48.56
58879;BME280;44660;42.664;23.266;2024-02-26T12:12:47;93951.72;;;14.57;47.50
58879;BME280;44660;42.664;23.266;2024-02-26T12:15:15;93948.78;;;14.53;47.34
58879;BME280;44660;42.664;23.266;2024-02-26T12:17:41;93896.72;;;14.16;47.31
58879;BME280;44660;42.664;23.266;2024-02-26T12:20:10;93951.47;;;14.53;47.28
58879;BME280;44660;42.664;23.266;2024-02-26T12:22:37;93951.47;;;14.53;47.33
58879;BME280;44660;42.664;23.266;2024-02-26T12:25:04;93955.88;;;14.73;46.80
58879;BME280;44660;42.664;23.266;2024-02-26T12:27:31;93948.38;;;14.70;46.68
58879;BME280;44660;42.664;23.266;2024-02-26T12:29:56;93964.81;;;14.88;47.02
58879;BME280;44660;42.664;23.266;2024-02-26T12:32:23;93934.75;;;14.72;46.53
58879;BME280;44660;42.664;23.266;2024-02-26T12:34:49;93954.78;;;14.74;46.37
58879;BME280;44660;42.664;23.266;2024-02-26T12:37:15;93943.09;;;14.65;46.80
58879;BME280;44660;42.664;23.266;2024-02-26T12:39:41;93969.88;;;14.89;46.61
58879;BME280;44660;42.664;23.266;2024-02-26T12:42:07;93965.09;;;14.86;46.63
58879;BME280;44660;42.664;23.266;2024-02-26T12:44:32;93979.22;;;14.92;46.52
58879;BME280;44660;42.664;23.266;2024-02-26T12:47:01;93949.72;;;14.97;46.01
58879;BME280;44660;42.664;23.266;2024-02-26T12:49:30;93959.75;;;15.10;45.22
58879;BME280;44660;42.664;23.266;2024-02-26T12:52:05;93939.25;;;15.00;45.47
58879;BME280;44660;42.664;23.266;2024-02-26T12:54:31;93959.41;;;15.17;45.33
58879;BME280;44660;42.664;23.266;2024-02-26T12:56:59;93934.34;;;15.08;45.08